Time;durP1;ratioP1;P1;durP2;ratioP2;P2;SDS_P1;SDS_P2;PMS_P1;PMS_P2;Temp;Humidity;BMP_temperature;BMP_pressure;BME280_temperature;BME280_humidity;BME280_pressure;Samples;Min_cycle;Max_cycle;Signal;HPM_P1;HPM_P2
2023/08/18 00:02:00;;;;;;;16.30;10.60;;;18.70;36.90;;;;;;5026017;28;20586;-66
2023/08/18 00:04:27;;;;;;;11.77;9.53;;;18.70;37.00;;;;;;5024501;28;20467;-66
2023/08/18 00:06:54;;;;;;;13.53;8.50;;;18.70;37.00;;;;;;5024793;28;20455;-66
2023/08/18 00:09:24;;;;;;;11.23;8.33;;;18.60;36.80;;;;;;5026923;28;21037;-66
2023/08/18 00:11:51;;;;;;;9.77;7.73;;;18.60;36.60;;;;;;5026189;28;20463;-65
2023/08/18 00:14:17;;;;;;;15.57;8.00;;;18.60;36.00;;;;;;5028191;28;20459;-66
2023/08/18 00:16:44;;;;;;;12.83;8.70;;;18.50;35.60;;;;;;5029355;28;20482;-65
2023/08/18 00:19:11;;;;;;;15.80;10.10;;;18.50;35.60;;;;;;5027637;28;20490;-65
2023/08/18 00:21:38;;;;;;;13.20;8.23;;;18.40;35.70;;;;;;5028914;28;20559;-66
2023/08/18 00:24:05;;;;;;;14.43;10.50;;;18.40;35.80;;;;;;5022729;28;20471;-66
2023/08/18 00:26:33;;;;;;;16.60;10.43;;;18.40;36.30;;;;;;5018126;28;20470;-66
2023/08/18 00:29:00;;;;;;;12.37;10.23;;;18.40;36.60;;;;;;5026577;28;20985;-66
2023/08/18 00:31:27;;;;;;;13.93;10.40;;;18.50;36.80;;;;;;5026456;28;20474;-66
2023/08/18 00:33:53;;;;;;;15.33;10.47;;;18.50;36.90;;;;;;5024358;28;20458;-66
2023/08/18 00:36:20;;;;;;;17.17;11.20;;;18.50;36.80;;;;;;5026385;28;20463;-66
2023/08/18 00:38:47;;;;;;;15.73;11.87;;;18.50;37.10;;;;;;5026578;28;20475;-67
2023/08/18 00:41:14;;;;;;;12.70;10.77;;;18.50;37.10;;;;;;5028419;28;20467;-66
2023/08/18 00:43:42;;;;;;;13.30;11.10;;;18.50;37.20;;;;;;5025283;28;20463;-66
2023/08/18 00:46:10;;;;;;;16.10;12.60;;;18.50;37.20;;;;;;5031280;28;20958;-66
2023/08/18 00:48:38;;;;;;;16.07;13.20;;;18.40;37.20;;;;;;5027902;28;20479;-66
2023/08/18 00:51:05;;;;;;;16.90;12.70;;;18.40;37.30;;;;;;5024736;28;20486;-66
2023/08/18 00:53:32;;;;;;;17.43;13.80;;;18.40;37.50;;;;;;5025245;28;20540;-66
2023/08/18 00:55:59;;;;;;;21.43;16.33;;;18.40;37.60;;;;;;5029922;28;20459;-66
2023/08/18 00:58:26;;;;;;;20.53;13.93;;;18.40;37.50;;;;;;5027451;28;20478;-65
2023/08/18 01:00:54;;;;;;;16.47;13.57;;;18.40;37.50;;;;;;5024370;28;22230;-67
2023/08/18 01:03:21;;;;;;;22.30;15.33;;;18.40;37.50;;;;;;5024937;28;20484;-66
2023/08/18 01:05:47;;;;;;;66.10;17.40;;;18.40;37.40;;;;;;5025877;28;20473;-65
2023/08/18 01:08:14;;;;;;;25.17;16.77;;;18.40;37.80;;;;;;5022947;28;20493;-66
2023/08/18 01:10:51;;;;;;;34.47;16.80;;;18.40;38.10;;;;;;5024793;28;20486;-67
2023/08/18 01:13:25;;;;;;;57.20;17.30;;;18.40;38.40;;;;;;5021983;28;20477;-67
2023/08/18 01:15:57;;;;;;;26.50;15.43;;;18.40;39.20;;;;;;5027500;28;20933;-66
2023/08/18 01:18:25;;;;;;;49.80;15.73;;;18.40;38.50;;;;;;5028904;28;20557;-65
2023/08/18 01:20:55;;;;;;;53.93;14.23;;;18.40;38.60;;;;;;5020132;28;20455;-66
2023/08/18 01:23:23;;;;;;;16.33;12.87;;;18.40;38.80;;;;;;5028134;28;21010;-66
2023/08/18 01:25:50;;;;;;;62.50;14.60;;;18.30;38.80;;;;;;5027362;28;20459;-66
2023/08/18 01:28:17;;;;;;;16.93;13.60;;;18.40;38.70;;;;;;5026435;28;20483;-66
2023/08/18 01:30:49;;;;;;;57.43;12.57;;;18.40;38.90;;;;;;5024084;28;20466;-66
2023/08/18 01:33:21;;;;;;;53.13;14.10;;;18.30;39.00;;;;;;5026598;28;20463;-66
2023/08/18 01:35:49;;;;;;;21.97;12.57;;;18.30;39.10;;;;;;5026387;28;20482;-66
2023/08/18 01:38:17;;;;;;;41.67;13.70;;;18.30;39.30;;;;;;5028709;28;21195;-66
2023/08/18 01:40:48;;;;;;;15.40;12.67;;;18.30;39.40;;;;;;5025545;28;20469;-67
2023/08/18 01:43:15;;;;;;;12.20;10.90;;;18.20;39.30;;;;;;5028594;28;20458;-66
2023/08/18 01:45:42;;;;;;;11.47;10.30;;;18.30;39.10;;;;;;5029270;28;20458;-66
2023/08/18 01:48:09;;;;;;;13.30;9.50;;;18.20;39.10;;;;;;5029132;28;20493;-65
2023/08/18 01:50:35;;;;;;;13.87;8.83;;;18.10;39.00;;;;;;5025966;28;20536;-66
2023/08/18 01:53:02;;;;;;;10.87;9.00;;;18.10;39.00;;;;;;5027950;28;20467;-66
2023/08/18 01:55:29;;;;;;;9.83;8.00;;;18.10;38.90;;;;;;5030444;28;20459;-66
2023/08/18 01:57:57;;;;;;;15.10;8.57;;;18.10;38.70;;;;;;5030958;28;20482;-66
2023/08/18 02:00:24;;;;;;;28.40;9.97;;;18.10;38.50;;;;;;5024472;28;20451;-66
2023/08/18 02:02:50;;;;;;;19.77;8.97;;;18.10;38.40;;;;;;5031091;28;20951;-66
2023/08/18 02:05:17;;;;;;;13.87;8.53;;;18.00;38.40;;;;;;5031003;28;20473;-66
2023/08/18 02:07:44;;;;;;;14.93;8.33;;;18.00;38.50;;;;;;5030568;28;20490;-66
2023/08/18 02:10:11;;;;;;;37.80;7.93;;;18.00;38.60;;;;;;5029573;28;20483;-66
2023/08/18 02:12:37;;;;;;;16.37;8.53;;;18.00;38.50;;;;;;5029771;28;20943;-66
2023/08/18 02:15:07;;;;;;;19.37;8.10;;;18.00;38.60;;;;;;5032444;28;20459;-66
2023/08/18 02:17:34;;;;;;;13.63;8.30;;;18.00;38.50;;;;;;5030375;28;20474;-67
2023/08/18 02:20:00;;;;;;;11.33;8.60;;;17.90;38.50;;;;;;5029321;28;20482;-66
2023/08/18 02:22:27;;;;;;;10.20;9.10;;;17.90;38.40;;;;;;5026779;28;20474;-66
2023/08/18 02:24:54;;;;;;;9.93;8.93;;;17.90;38.50;;;;;;5026626;28;20466;-66
2023/08/18 02:27:21;;;;;;;9.23;8.30;;;17.80;38.40;;;;;;5031007;28;20493;-65
2023/08/18 02:29:48;;;;;;;11.10;9.40;;;17.80;38.40;;;;;;5028946;28;21010;-66
2023/08/18 02:32:18;;;;;;;10.93;9.10;;;17.80;38.50;;;;;;5027791;28;20482;-65
2023/08/18 02:34:45;;;;;;;9.17;8.17;;;17.70;38.50;;;;;;5030642;28;20466;-66
2023/08/18 02:37:12;;;;;;;11.53;9.20;;;17.80;38.20;;;;;;5030265;28;20466;-66
2023/08/18 02:39:39;;;;;;;76.20;11.43;;;17.80;38.20;;;;;;5029618;28;20552;-66
2023/08/18 02:42:06;;;;;;;21.30;10.50;;;17.80;38.20;;;;;;5029814;28;20499;-66
2023/08/18 02:44:32;;;;;;;12.43;9.40;;;17.80;38.10;;;;;;5028708;28;20459;-66
2023/08/18 02:46:59;;;;;;;29.43;11.80;;;17.80;38.00;;;;;;5031345;28;20455;-66
2023/08/18 02:49:27;;;;;;;17.23;10.57;;;17.80;38.20;;;;;;5027521;28;20490;-66
2023/08/18 02:51:54;;;;;;;11.83;10.00;;;17.70;38.30;;;;;;5029949;28;20467;-66
2023/08/18 02:54:21;;;;;;;11.87;9.97;;;17.70;38.10;;;;;;5034144;28;20458;-66
2023/08/18 02:56:47;;;;;;;12.83;10.70;;;17.70;38.10;;;;;;5030466;28;20459;-65
2023/08/18 02:59:14;;;;;;;12.37;9.60;;;17.70;37.80;;;;;;5027799;28;20557;-66
2023/08/18 03:01:41;;;;;;;13.07;10.43;;;17.70;37.60;;;;;;5025729;28;20487;-66
2023/08/18 03:04:07;;;;;;;12.33;10.23;;;17.70;37.60;;;;;;5025919;28;20459;-66
2023/08/18 03:06:35;;;;;;;11.40;10.10;;;17.60;37.70;;;;;;5032251;28;20463;-66
2023/08/18 03:09:03;;;;;;;11.43;9.67;;;17.60;37.60;;;;;;5029496;28;20483;-68
2023/08/18 03:11:29;;;;;;;13.03;10.97;;;17.60;37.50;;;;;;5026843;28;20510;-67
2023/08/18 03:13:56;;;;;;;15.00;10.53;;;17.60;37.50;;;;;;5032646;28;20567;-66
2023/08/18 03:16:23;;;;;;;18.60;10.93;;;17.50;37.50;;;;;;5028116;28;21220;-66
2023/08/18 03:18:49;;;;;;;12.33;10.70;;;17.50;37.70;;;;;;5029674;28;21009;-66
2023/08/18 03:21:16;;;;;;;13.70;11.33;;;17.50;37.60;;;;;;5028213;28;20462;-66
2023/08/18 03:23:44;;;;;;;12.90;11.63;;;17.50;37.60;;;;;;5031219;28;20451;-66
2023/08/18 03:26:11;;;;;;;12.93;9.90;;;17.50;37.70;;;;;;5030035;28;20478;-67
2023/08/18 03:28:38;;;;;;;10.63;9.33;;;17.40;37.50;;;;;;5029300;28;20483;-67
2023/08/18 03:31:06;;;;;;;9.90;8.90;;;17.40;37.60;;;;;;5029817;28;21292;-66
2023/08/18 03:33:33;;;;;;;10.70;8.67;;;17.40;37.50;;;;;;5023364;28;20471;-66
2023/08/18 03:36:00;;;;;;;11.00;9.80;;;17.40;37.60;;;;;;5028245;28;20498;-66
2023/08/18 03:38:27;;;;;;;9.53;8.53;;;17.40;37.60;;;;;;5029167;28;20479;-65
2023/08/18 03:41:00;;;;;;;11.60;10.40;;;17.40;37.70;;;;;;5029000;28;20451;-66
2023/08/18 03:43:26;;;;;;;10.63;9.53;;;17.40;37.70;;;;;;5030249;28;20451;-66
2023/08/18 03:45:53;;;;;;;13.37;9.20;;;17.40;37.60;;;;;;5028246;28;20467;-66
2023/08/18 03:48:20;;;;;;;9.63;8.43;;;17.30;37.70;;;;;;5025197;28;20478;-66
2023/08/18 03:50:46;;;;;;;14.80;9.83;;;17.30;37.60;;;;;;5025917;28;20487;-65
2023/08/18 03:53:14;;;;;;;10.73;9.60;;;17.30;37.70;;;;;;5030353;28;20466;-66
2023/08/18 03:55:40;;;;;;;13.90;10.90;;;17.40;38.30;;;;;;5029386;28;20473;-66
2023/08/18 03:58:08;;;;;;;9.87;8.10;;;17.40;37.70;;;;;;5027894;28;20574;-66
2023/08/18 04:00:35;;;;;;;9.03;7.17;;;17.40;37.60;;;;;;5026138;28;20479;-65
2023/08/18 04:03:03;;;;;;;10.23;8.20;;;17.40;37.50;;;;;;5028593;28;20975;-65
2023/08/18 04:05:30;;;;;;;9.83;8.60;;;17.40;37.50;;;;;;5032105;28;20459;-66
2023/08/18 04:07:57;;;;;;;10.10;8.93;;;17.40;37.40;;;;;;5018456;28;20491;-66
2023/08/18 04:10:23;;;;;;;12.43;10.50;;;17.40;37.50;;;;;;5025284;28;20449;-68
2023/08/18 04:12:50;;;;;;;10.73;8.63;;;17.40;38.50;;;;;;5021783;28;20705;-67
2023/08/18 04:15:18;;;;;;;9.10;8.03;;;17.50;37.40;;;;;;5024693;28;20490;-66
2023/08/18 04:17:45;;;;;;;10.53;8.80;;;17.50;37.30;;;;;;5032160;28;20493;-67
2023/08/18 04:20:12;;;;;;;10.30;9.20;;;17.50;37.20;;;;;;5022404;28;20482;-66
2023/08/18 04:22:38;;;;;;;9.33;8.33;;;17.50;37.10;;;;;;5027322;28;20467;-67
2023/08/18 04:25:07;;;;;;;10.30;8.20;;;17.50;37.10;;;;;;5029942;28;20467;-66
2023/08/18 04:27:33;;;;;;;10.20;9.20;;;17.50;37.00;;;;;;5029199;28;20474;-66
2023/08/18 04:30:00;;;;;;;11.77;7.80;;;17.50;36.90;;;;;;5026548;28;20455;-66
2023/08/18 04:32:28;;;;;;;13.37;8.47;;;17.50;36.80;;;;;;5025395;28;21003;-66
2023/08/18 04:34:55;;;;;;;9.67;8.47;;;17.50;36.80;;;;;;5020211;28;20467;-66
2023/08/18 04:37:22;;;;;;;11.37;8.90;;;17.50;36.60;;;;;;5026378;28;20994;-65
2023/08/18 04:39:48;;;;;;;10.43;9.00;;;17.50;36.40;;;;;;5024824;28;20463;-66
2023/08/18 04:42:15;;;;;;;21.57;9.50;;;17.50;36.50;;;;;;5022533;28;20473;-65
2023/08/18 04:44:42;;;;;;;10.23;8.90;;;17.50;36.70;;;;;;5026382;28;20989;-66
2023/08/18 04:47:08;;;;;;;36.00;8.93;;;17.50;36.60;;;;;;5022173;28;20471;-65
2023/08/18 04:49:37;;;;;;;37.47;8.57;;;17.50;36.50;;;;;;5020509;28;20482;-65
2023/08/18 04:52:05;;;;;;;9.90;8.70;;;17.50;36.40;;;;;;5025521;28;20482;-65
2023/08/18 04:54:32;;;;;;;21.43;8.90;;;17.40;36.40;;;;;;5023435;28;20495;-66
2023/08/18 04:56:59;;;;;;;23.90;9.07;;;17.40;36.40;;;;;;5021474;28;20835;-66
2023/08/18 04:59:26;;;;;;;51.87;10.17;;;17.40;36.50;;;;;;5024172;28;20589;-66
2023/08/18 05:01:53;;;;;;;17.87;9.50;;;17.40;36.40;;;;;;5023790;28;24436;-66
2023/08/18 05:04:20;;;;;;;18.23;9.30;;;17.40;36.60;;;;;;5023577;28;21041;-66
2023/08/18 05:06:48;;;;;;;23.23;10.10;;;17.40;36.90;;;;;;5024818;28;20469;-65
2023/08/18 05:09:15;;;;;;;22.90;7.90;;;17.40;37.00;;;;;;5021774;28;21003;-66
2023/08/18 05:11:41;;;;;;;14.30;8.23;;;17.40;36.90;;;;;;5025512;28;20497;-67
2023/08/18 05:14:08;;;;;;;11.20;7.70;;;17.50;37.00;;;;;;5024946;28;20468;-66
2023/08/18 05:16:35;;;;;;;8.80;7.60;;;17.50;36.90;;;;;;5022334;28;20462;-66
2023/08/18 05:19:02;;;;;;;10.40;8.13;;;17.60;36.70;;;;;;5024257;28;20995;-66
2023/08/18 05:21:29;;;;;;;13.27;7.10;;;17.70;36.70;;;;;;5026722;28;20550;-67
2023/08/18 05:23:57;;;;;;;14.70;8.20;;;17.70;36.40;;;;;;5023209;28;20481;-67
2023/08/18 05:26:24;;;;;;;15.50;7.93;;;17.80;36.20;;;;;;5025884;28;21160;-65
2023/08/18 05:28:50;;;;;;;9.77;7.00;;;18.00;36.00;;;;;;5022763;28;20561;-66
2023/08/18 05:31:17;;;;;;;8.37;7.30;;;18.10;35.70;;;;;;5022967;28;20483;-65
2023/08/18 05:33:44;;;;;;;7.63;6.73;;;18.20;35.30;;;;;;5023226;28;20474;-66
2023/08/18 05:36:10;;;;;;;10.47;6.13;;;18.50;35.00;;;;;;5025390;28;20462;-66
2023/08/18 05:38:37;;;;;;;9.77;6.40;;;18.70;34.30;;;;;;5021296;28;21010;-66
2023/08/18 05:41:07;;;;;;;19.50;6.43;;;18.80;33.70;;;;;;5023015;28;20459;-66
2023/08/18 05:43:35;;;;;;;13.13;6.37;;;18.90;33.20;;;;;;5023364;28;20459;-66
2023/08/18 05:46:03;;;;;;;14.80;6.27;;;19.00;32.90;;;;;;5025904;28;20832;-65
2023/08/18 05:48:30;;;;;;;21.67;6.87;;;19.20;32.60;;;;;;5021267;23;21264;-69
2023/08/18 05:50:57;;;;;;;10.83;6.30;;;19.30;32.10;;;;;;5000193;28;20473;-69
2023/08/18 05:53:24;;;;;;;7.80;6.63;;;19.40;31.60;;;;;;5000480;28;20460;-70
2023/08/18 05:55:52;;;;;;;13.60;5.90;;;19.50;31.30;;;;;;4999516;28;20468;-68
2023/08/18 05:58:21;;;;;;;7.30;6.33;;;19.60;30.60;;;;;;5001671;28;20553;-69
2023/08/18 06:00:49;;;;;;;13.37;6.10;;;19.60;30.30;;;;;;5004470;28;20770;-69
2023/08/18 06:03:18;;;;;;;6.57;5.80;;;19.70;30.20;;;;;;5001523;28;20986;-68
2023/08/18 06:05:46;;;;;;;6.73;5.60;;;19.80;29.80;;;;;;5001176;28;21273;-69
2023/08/18 06:08:12;;;;;;;9.83;6.00;;;20.00;29.60;;;;;;5001529;28;21191;-69
2023/08/18 06:10:39;;;;;;;18.83;5.80;;;20.10;29.20;;;;;;5003675;28;20491;-69
2023/08/18 06:13:06;;;;;;;26.83;5.83;;;20.20;29.00;;;;;;5000104;28;20463;-69
2023/08/18 06:15:34;;;;;;;20.27;5.60;;;20.40;28.40;;;;;;5005045;28;20464;-69
2023/08/18 06:18:01;;;;;;;16.43;6.10;;;20.50;27.90;;;;;;5002351;28;20500;-69
2023/08/18 06:20:27;;;;;;;7.93;5.27;;;20.70;27.30;;;;;;5002612;28;20944;-68
2023/08/18 06:22:54;;;;;;;6.80;5.10;;;20.90;27.20;;;;;;5001901;28;20463;-68
2023/08/18 06:25:21;;;;;;;8.87;5.00;;;21.30;26.50;;;;;;5005409;28;20478;-69
2023/08/18 06:27:48;;;;;;;13.33;4.57;;;21.70;24.90;;;;;;5006898;28;20997;-69
2023/08/18 06:30:15;;;;;;;8.60;5.20;;;22.00;23.60;;;;;;5002017;28;20468;-69
2023/08/18 06:32:44;;;;;;;10.13;5.07;;;22.10;23.00;;;;;;5003230;28;20514;-69
2023/08/18 06:35:11;;;;;;;5.43;4.37;;;22.30;22.50;;;;;;5005388;28;20468;-66
2023/08/18 06:37:38;;;;;;;7.27;4.50;;;22.60;21.40;;;;;;5004525;28;20502;-67
2023/08/18 06:40:05;;;;;;;5.30;4.27;;;23.00;21.10;;;;;;5006030;28;20475;-68
2023/08/18 06:42:32;;;;;;;5.40;4.30;;;23.40;20.00;;;;;;5004493;28;20464;-69
2023/08/18 06:44:59;;;;;;;6.47;4.70;;;23.80;19.00;;;;;;5003133;28;21019;-69
2023/08/18 06:47:26;;;;;;;5.53;4.47;;;24.30;17.90;;;;;;5012902;28;20919;-67
2023/08/18 06:49:54;;;;;;;5.73;4.43;;;25.20;16.20;;;;;;5024959;28;20478;-69
2023/08/18 06:52:20;;;;;;;5.67;4.70;;;26.60;13.50;;;;;;5024056;28;21220;-68
2023/08/18 06:54:47;;;;;;;5.70;4.57;;;27.80;10.10;;;;;;5025152;28;20481;-67
2023/08/18 06:57:14;;;;;;;5.97;4.23;;;29.30;7.20;;;;;;5020093;28;20592;-68
2023/08/18 06:59:41;;;;;;;6.63;4.27;;;30.80;3.60;;;;;;5020693;28;20505;-69
2023/08/18 07:02:08;;;;;;;5.07;4.07;;;32.20;1.00;;;;;;5017814;28;20468;-70
2023/08/18 07:04:35;;;;;;;5.03;3.97;;;33.40;1.00;;;;;;5025033;28;20455;-69
2023/08/18 07:07:03;;;;;;;5.90;4.73;;;34.90;1.00;;;;;;5028312;28;20462;-69
2023/08/18 07:09:30;;;;;;;4.80;3.70;;;36.40;1.00;;;;;;5029577;28;20462;-68
2023/08/18 07:11:56;;;;;;;5.80;3.73;;;37.80;1.00;;;;;;5026328;28;20495;-69
2023/08/18 07:14:23;;;;;;;4.40;3.30;;;38.80;1.00;;;;;;5029114;28;20993;-69
2023/08/18 07:16:50;;;;;;;5.90;3.90;;;40.00;1.00;;;;;;5022165;28;20474;-69
2023/08/18 07:19:17;;;;;;;4.63;3.73;;;41.00;1.00;;;;;;5022017;28;20819;-69
2023/08/18 07:21:44;;;;;;;5.37;3.57;;;41.80;1.00;;;;;;5021939;28;20545;-69
2023/08/18 07:24:12;;;;;;;5.37;3.80;;;42.20;1.00;;;;;;5022690;28;20474;-70
2023/08/18 07:26:38;;;;;;;35.93;5.60;;;42.20;1.00;;;;;;5019276;28;20558;-68
2023/08/18 07:29:05;;;;;;;37.20;7.80;;;42.50;1.00;;;;;;5024152;28;20489;-68
2023/08/18 07:31:32;;;;;;;5.20;3.47;;;42.60;1.00;;;;;;5021093;28;20494;-69
2023/08/18 07:33:59;;;;;;;7.43;3.40;;;42.10;1.00;;;;;;5022803;28;20535;-67
2023/08/18 07:36:26;;;;;;;5.00;3.90;;;42.20;1.00;;;;;;5022957;28;20514;-67
2023/08/18 07:38:53;;;;;;;5.90;3.47;;;41.90;1.00;;;;;;5023661;28;20490;-68
2023/08/18 07:41:21;;;;;;;6.30;3.80;;;41.90;1.00;;;;;;5025794;28;20451;-69
2023/08/18 07:43:47;;;;;;;5.10;3.90;;;41.90;1.00;;;;;;5021863;28;20459;-69
2023/08/18 07:46:14;;;;;;;5.60;3.67;;;42.80;1.00;;;;;;5024442;28;20459;-69
2023/08/18 07:48:43;;;;;;;5.03;3.80;;;44.30;1.00;;;;;;5017988;28;20490;-69
2023/08/18 07:51:10;;;;;;;4.20;3.73;;;45.30;1.00;;;;;;5019048;28;20483;-69
2023/08/18 07:53:37;;;;;;;4.70;3.47;;;46.10;1.00;;;;;;5021333;28;20486;-69
2023/08/18 07:56:04;;;;;;;6.03;3.60;;;47.00;1.00;;;;;;5020019;28;20536;-69
2023/08/18 07:58:32;;;;;;;4.73;3.63;;;47.90;1.00;;;;;;5020981;28;20491;-69
2023/08/18 08:00:59;;;;;;;3.97;3.27;;;48.30;1.00;;;;;;5018882;28;20486;-70
2023/08/18 08:03:26;;;;;;;4.77;3.63;;;49.00;1.00;;;;;;5025384;28;20522;-71
2023/08/18 08:05:52;;;;;;;4.10;3.07;;;49.70;1.00;;;;;;5021583;28;20467;-70
2023/08/18 08:08:19;;;;;;;5.40;3.90;;;50.20;1.00;;;;;;5025003;28;21129;-69
2023/08/18 08:10:46;;;;;;;4.53;3.27;;;50.80;1.00;;;;;;5022765;28;20475;-69
2023/08/18 08:13:12;;;;;;;4.60;3.00;;;51.30;1.00;;;;;;5025811;28;20458;-70
2023/08/18 08:15:45;;;;;;;6.17;3.17;;;51.70;1.00;;;;;;5022189;28;20458;-69
2023/08/18 08:18:13;;;;;;;7.53;3.90;;;52.40;1.00;;;;;;5020480;28;20494;-69
2023/08/18 08:20:40;;;;;;;4.70;3.03;;;52.60;1.00;;;;;;5020724;28;20462;-69
2023/08/18 08:23:07;;;;;;;4.80;3.83;;;52.90;1.00;;;;;;5019178;28;20478;-69
2023/08/18 08:25:34;;;;;;;4.10;3.23;;;52.90;1.00;;;;;;5023097;28;20498;-68
2023/08/18 08:28:01;;;;;;;5.80;3.50;;;53.10;1.00;;;;;;5019087;28;20489;-68
2023/08/18 08:30:29;;;;;;;4.47;3.50;;;53.50;1.00;;;;;;5021191;28;20470;-71
2023/08/18 08:32:57;;;;;;;6.60;2.60;;;53.70;1.00;;;;;;5019138;28;20458;-68
2023/08/18 08:35:24;;;;;;;4.93;3.17;;;53.90;1.00;;;;;;5016496;28;20474;-69
2023/08/18 08:37:51;;;;;;;4.30;2.63;;;54.30;1.00;;;;;;5024491;28;20489;-68
2023/08/18 08:40:19;;;;;;;4.50;3.10;;;54.60;1.00;;;;;;5022464;28;20880;-68
2023/08/18 08:42:46;;;;;;;5.47;3.00;;;54.90;1.00;;;;;;5024395;28;21021;-68
2023/08/18 08:45:13;;;;;;;5.70;2.60;;;55.10;1.00;;;;;;5017302;28;20480;-71
2023/08/18 08:47:43;;;;;;;6.13;3.70;;;55.10;1.00;;;;;;5024367;28;20606;-69
2023/08/18 08:50:16;;;;;;;6.50;3.83;;;55.20;1.00;;;;;;5013302;28;20473;-69
2023/08/18 08:52:45;;;;;;;4.30;3.70;;;55.40;1.00;;;;;;5023652;28;20450;-71
2023/08/18 08:55:14;;;;;;;4.37;3.43;;;55.30;1.00;;;;;;5013636;28;20506;-71
2023/08/18 08:57:41;;;;;;;4.40;2.90;;;55.30;1.00;;;;;;5019876;28;20903;-70
2023/08/18 09:00:11;;;;;;;5.03;2.67;;;55.50;1.00;;;;;;5017333;28;20494;-71
2023/08/18 09:02:39;;;;;;;4.20;3.07;;;55.70;1.00;;;;;;5022159;28;20471;-70
2023/08/18 09:05:06;;;;;;;5.80;3.20;;;55.40;1.00;;;;;;5021020;28;20458;-70
2023/08/18 09:07:34;;;;;;;7.37;3.13;;;55.60;1.00;;;;;;5021976;28;20482;-69
2023/08/18 09:10:01;;;;;;;5.20;2.90;;;55.60;1.00;;;;;;5017081;28;20462;-68
2023/08/18 09:12:29;;;;;;;4.07;3.00;;;55.70;1.00;;;;;;5026025;28;20451;-69
2023/08/18 09:14:56;;;;;;;5.13;3.10;;;55.80;1.00;;;;;;5022905;28;20208;-69
2023/08/18 09:17:23;;;;;;;3.97;2.90;;;55.80;1.00;;;;;;5018402;28;20550;-69
2023/08/18 09:19:50;;;;;;;4.97;2.90;;;55.80;1.00;;;;;;5020599;28;20215;-71
2023/08/18 09:22:21;;;;;;;5.17;3.27;;;55.90;1.00;;;;;;5017059;28;20486;-70
2023/08/18 09:24:51;;;;;;;4.23;2.40;;;56.00;1.00;;;;;;5020127;28;20545;-71
2023/08/18 09:27:20;;;;;;;4.10;2.70;;;55.80;1.00;;;;;;5022039;28;20482;-71
2023/08/18 09:29:46;;;;;;;4.67;3.33;;;55.90;1.00;;;;;;5022076;28;20469;-71
2023/08/18 09:32:13;;;;;;;4.53;3.00;;;55.80;1.00;;;;;;5016362;28;20215;-70
2023/08/18 09:34:43;;;;;;;5.50;2.80;;;56.10;1.00;;;;;;5017167;28;20208;-72
2023/08/18 09:37:10;;;;;;;6.57;3.50;;;55.80;1.00;;;;;;5018985;28;20691;-72
2023/08/18 09:39:36;;;;;;;4.80;3.43;;;55.40;1.00;;;;;;5025296;28;20474;-68
2023/08/18 09:42:06;;;;;;;4.80;3.50;;;55.10;1.00;;;;;;5021101;28;21056;-69
2023/08/18 09:44:33;;;;;;;4.33;3.00;;;53.80;1.00;;;;;;5020680;28;20466;-69
2023/08/18 09:47:03;;;;;;;6.50;2.83;;;53.60;1.00;;;;;;5016992;28;21131;-70
2023/08/18 09:49:35;;;;;;;5.17;3.77;;;54.20;1.00;;;;;;5020614;28;20462;-69
2023/08/18 09:52:04;;;;;;;5.37;3.03;;;54.70;1.00;;;;;;5017985;28;21034;-69
2023/08/18 09:54:36;;;;;;;5.50;3.80;;;54.80;1.00;;;;;;5016081;28;20470;-70
2023/08/18 09:57:12;;;;;;;4.30;2.53;;;55.20;1.00;;;;;;5017959;28;20469;-70
2023/08/18 09:59:43;;;;;;;4.40;2.50;;;55.10;1.00;;;;;;5018543;28;20473;-69
2023/08/18 10:02:18;;;;;;;5.57;2.50;;;55.20;1.00;;;;;;5017596;28;20517;-69
2023/08/18 10:04:45;;;;;;;4.40;2.70;;;55.50;1.00;;;;;;5021072;28;20469;-69
2023/08/18 10:07:13;;;;;;;4.60;2.60;;;55.80;1.00;;;;;;5023640;28;20470;-68
2023/08/18 10:09:42;;;;;;;4.43;2.97;;;55.90;1.00;;;;;;5024462;28;20480;-69
2023/08/18 10:12:11;;;;;;;3.63;2.07;;;55.80;1.00;;;;;;5024860;28;20458;-68
2023/08/18 10:14:39;;;;;;;3.40;1.80;;;56.10;1.00;;;;;;5026771;28;20634;-69
2023/08/18 10:17:06;;;;;;;3.00;1.80;;;55.90;1.00;;;;;;5021458;28;20289;-70
2023/08/18 10:19:51;;;;;;;3.57;1.70;;;55.50;1.00;;;;;;5023021;28;20493;-66
2023/08/18 10:22:19;;;;;;;3.30;2.10;;;55.20;1.00;;;;;;5025817;28;20504;-68
2023/08/18 10:24:47;;;;;;;3.60;1.90;;;55.00;1.00;;;;;;5022098;28;20474;-67
2023/08/18 10:27:31;;;;;;;5.43;2.40;;;54.90;1.00;;;;;;5027538;28;20950;-68
2023/08/18 10:30:01;;;;;;;4.07;2.07;;;54.70;1.00;;;;;;5021113;28;20877;-66
2023/08/18 10:32:30;;;;;;;7.13;1.60;;;54.60;1.00;;;;;;5027659;28;21083;-66
2023/08/18 10:35:18;;;;;;;4.50;2.00;;;54.50;1.00;;;;;;5019880;28;20462;-68
2023/08/18 10:37:45;;;;;;;5.20;2.17;;;53.60;1.00;;;;;;5026779;28;20497;-68
2023/08/18 10:40:23;;;;;;;5.03;2.20;;;51.30;1.00;;;;;;5027032;28;20481;-68
2023/08/18 10:42:53;;;;;;;3.70;2.07;;;49.10;1.00;;;;;;5024240;28;20506;-68
2023/08/18 10:45:23;;;;;;;5.23;2.50;;;46.90;1.00;;;;;;5021412;28;20466;-66
2023/08/18 10:47:50;;;;;;;4.40;2.67;;;45.00;1.00;;;;;;5018086;28;20490;-65
2023/08/18 10:50:19;;;;;;;6.63;2.67;;;43.50;1.00;;;;;;5024961;28;20580;-66
2023/08/18 10:52:46;;;;;;;4.43;1.80;;;42.20;1.00;;;;;;5021093;28;20463;-65
2023/08/18 10:55:12;;;;;;;4.20;2.00;;;41.00;1.00;;;;;;5023766;28;20482;-66
2023/08/18 10:57:39;;;;;;;4.40;2.07;;;39.70;1.00;;;;;;5023355;28;20514;-65
2023/08/18 11:00:12;;;;;;;3.87;2.07;;;38.60;1.00;;;;;;5025002;28;20505;-65
2023/08/18 11:02:38;;;;;;;5.40;2.00;;;37.50;1.00;;;;;;5016736;28;20502;-66
2023/08/18 11:05:07;;;;;;;4.73;2.20;;;36.60;1.00;;;;;;5026647;28;20463;-65
2023/08/18 11:07:34;;;;;;;4.50;2.50;;;36.10;1.00;;;;;;5020711;28;20479;-65
2023/08/18 11:10:01;;;;;;;6.00;2.63;;;35.40;1.00;;;;;;5022310;28;20462;-66
2023/08/18 11:12:27;;;;;;;5.10;2.40;;;34.70;1.00;;;;;;5018665;28;20459;-66
2023/08/18 11:14:54;;;;;;;6.07;2.40;;;34.20;1.00;;;;;;5023815;28;20474;-65
2023/08/18 11:17:22;;;;;;;4.90;2.70;;;33.80;1.00;;;;;;5019333;28;20470;-65
2023/08/18 11:19:49;;;;;;;3.87;2.17;;;33.40;1.00;;;;;;5025199;28;20471;-65
2023/08/18 11:22:16;;;;;;;5.10;2.27;;;33.10;1.00;;;;;;5020432;28;20467;-66
2023/08/18 11:24:44;;;;;;;5.33;2.67;;;32.70;1.00;;;;;;5027005;28;21623;-65
2023/08/18 11:27:11;;;;;;;4.40;2.30;;;32.50;1.00;;;;;;5023928;28;20466;-65
2023/08/18 11:29:37;;;;;;;4.23;2.20;;;32.30;1.00;;;;;;5020649;28;20472;-66
2023/08/18 11:32:07;;;;;;;5.60;2.43;;;32.20;1.00;;;;;;5022837;28;20594;-66
2023/08/18 11:34:36;;;;;;;5.30;2.83;;;31.90;1.00;;;;;;5021461;28;20464;-65
2023/08/18 11:37:04;;;;;;;4.67;2.50;;;31.70;1.00;;;;;;5022722;28;20458;-65
2023/08/18 11:39:31;;;;;;;4.47;2.33;;;31.50;1.00;;;;;;5021793;28;20978;-65
2023/08/18 11:41:58;;;;;;;4.87;2.60;;;31.30;1.00;;;;;;5022358;28;20476;-65
2023/08/18 11:44:25;;;;;;;5.30;2.73;;;31.20;1.00;;;;;;5021156;28;20486;-65
2023/08/18 11:46:53;;;;;;;5.37;2.87;;;31.10;1.00;;;;;;5025543;28;21101;-66
2023/08/18 11:49:20;;;;;;;4.73;2.20;;;30.90;1.00;;;;;;5020147;28;22874;-65
2023/08/18 11:51:59;;;;;;;6.60;3.00;;;30.80;1.00;;;;;;5025268;28;20463;-65
2023/08/18 11:54:30;;;;;;;5.10;2.50;;;30.70;1.00;;;;;;5021543;28;20462;-65
2023/08/18 11:56:57;;;;;;;4.07;2.30;;;30.70;1.70;;;;;;5018348;28;20479;-65
2023/08/18 11:59:24;;;;;;;5.10;2.17;;;30.70;1.20;;;;;;5021224;28;20490;-65
2023/08/18 12:01:54;;;;;;;4.50;2.47;;;30.60;1.00;;;;;;5021158;28;20857;-65
2023/08/18 12:04:24;;;;;;;5.50;2.43;;;30.50;1.00;;;;;;5022678;28;20486;-66
2023/08/18 12:06:51;;;;;;;5.50;2.57;;;30.40;1.40;;;;;;5017765;28;20588;-65
2023/08/18 12:09:20;;;;;;;5.00;2.10;;;30.40;1.10;;;;;;5007394;28;20505;-66
2023/08/18 12:11:47;;;;;;;4.70;2.43;;;30.30;1.00;;;;;;5023578;28;20475;-65
2023/08/18 12:14:14;;;;;;;4.77;2.30;;;30.10;1.00;;;;;;5021096;28;20482;-65
2023/08/18 12:16:41;;;;;;;4.97;2.50;;;30.00;1.00;;;;;;5019692;28;20479;-65
2023/08/18 12:19:08;;;;;;;5.07;2.67;;;29.90;1.20;;;;;;5021347;28;20510;-65
2023/08/18 12:21:37;;;;;;;5.10;2.50;;;29.90;2.10;;;;;;5032339;23;20469;-65
2023/08/18 12:24:05;;;;;;;3.63;2.03;;;29.80;1.90;;;;;;5000647;28;21206;-65
2023/08/18 12:26:33;;;;;;;4.20;1.80;;;29.70;2.20;;;;;;5006326;28;20468;-65
2023/08/18 12:29:01;;;;;;;4.73;2.33;;;29.70;2.50;;;;;;5005894;28;20826;-66
2023/08/18 12:31:28;;;;;;;5.10;2.63;;;29.60;1.20;;;;;;4997262;28;20852;-67
2023/08/18 12:33:55;;;;;;;4.67;2.30;;;29.50;1.00;;;;;;4997563;28;20918;-67
2023/08/18 12:36:22;;;;;;;4.90;2.20;;;29.40;1.70;;;;;;5001174;28;20474;-67
2023/08/18 12:38:49;;;;;;;4.60;2.17;;;29.40;1.80;;;;;;4999428;28;20488;-68
2023/08/18 12:41:16;;;;;;;3.80;1.70;;;29.30;1.90;;;;;;4995133;28;20467;-68
2023/08/18 12:43:44;;;;;;;4.73;2.20;;;29.30;1.80;;;;;;5004954;28;20479;-67
2023/08/18 12:46:11;;;;;;;5.57;2.67;;;29.30;2.10;;;;;;5000559;28;20468;-67
2023/08/18 12:48:38;;;;;;;5.37;2.47;;;29.20;2.20;;;;;;5001205;28;20488;-67